首页
METAR-TAF:

METAR-TAF

机场 :

贝尔法斯特国际机场

贝尔法斯特, 北爱尔兰

纬度: 54-39N, 经度: 006-13W, 海拔: 81米

当前天气观测

该预报发布于27分钟前的23:20 UTC
风速12节,风向西南
温度 19°C
湿度 94%
气压 1007 hPa
能见度10公里或以上
散云层高于700英尺
多云层高于1100英尺
阴天层高于1600英尺
小雨

METAR: EGAA 212320Z 22012KT 9999 -RA SCT007 BKN011 OVC016 19/18 Q1007

时间: 00:47 (23:47 UTC)

预报

该预报发布于43分钟前的23:04 UTC
预报有效从22日的 00点(UTC)到 22日的 24点(UTC)
风速20节,风向南转西南,有时为32节阵风
能见度10公里或以上
散云层高于1200英尺
短暂存在
从 22日的 00点(UTC)到 22日的 03点(UTC)
能見度: 7000
散云层高于700英尺
多云层高于1200英尺
雨, 小雨, 毛毛雨
几率 30% :
短暂存在
从 22日的 00点(UTC)到 22日的 04点(UTC)
能見度: 3000
多云层高于400英尺
雨, 毛毛雨, 大雨
成为
从 22日的 03点(UTC)到 22日的 06点(UTC)
多云层高于1200英尺
短暂存在
从 22日的 03点(UTC)到 22日的 09点(UTC)
能見度: 7000
雨, 小雨, 毛毛雨
几率 30% :
短暂存在
从 22日的 04点(UTC)到 22日的 07点(UTC)
多云层高于400英尺
成为
从 22日的 07点(UTC)到 22日的 10点(UTC)
少量云层高于1400英尺
散云层高于2000英尺
成为
从 22日的 13点(UTC)到 22日的 16点(UTC)
风速12节,风向南转西南

TAF: EGAA 212304Z 2200/2224 21020G32KT 9999 SCT012 TEMPO 2200/2203 7000 RA -RADZ SCT007 BKN012 PROB30 TEMPO 2200/2204 3000 RADZ +RA BKN004 BECMG 2203/2206 BKN012 TEMPO 2203/2209 7000 RA -RADZ PROB30 TEMPO 2204/2207 BKN004 BECMG 2207/2210 FEW014 SCT020 BECMG 2213/2216 21012KT

超过4000个机场的气象观测和天气预报(METAR&TAF报告)。

可查询的气象台以黄色和红色小点在地图上表示。

将鼠标移到小点上方,可查看气象台名称。

然后点击查看天气观测和预报。

如需切换地图:点击带黑十字的绿色按钮放大地图;点击带横线的绿色按钮缩小地图;或者点击绿色箭头查看邻近地区的地图。


METAR-TAF: